createdAt,value
2017-09-01T00:00:07.337Z,16.10
2017-09-01T00:02:35.701Z,16.10
2017-09-01T00:05:03.977Z,16.00
2017-09-01T00:07:32.246Z,16.00
2017-09-01T00:10:00.542Z,16.00
2017-09-01T00:12:28.821Z,16.00
2017-09-01T00:14:57.872Z,16.00
2017-09-01T00:17:26.149Z,16.00
2017-09-01T00:19:54.405Z,15.90
2017-09-01T00:22:22.681Z,15.80
2017-09-01T00:24:50.996Z,15.80
2017-09-01T00:27:19.282Z,15.80
2017-09-01T00:29:47.569Z,15.80
2017-09-01T00:32:15.860Z,15.70
2017-09-01T00:34:44.207Z,15.70
2017-09-01T00:37:12.497Z,15.60
2017-09-01T00:39:40.863Z,15.60
2017-09-01T00:42:09.243Z,15.50
2017-09-01T00:44:37.559Z,15.50
2017-09-01T00:47:05.819Z,15.50
2017-09-01T00:49:34.124Z,15.50
2017-09-01T00:52:02.433Z,15.40
2017-09-01T00:54:30.817Z,15.40
2017-09-01T00:56:59.076Z,15.40
2017-09-01T00:59:27.341Z,15.40
2017-09-01T01:01:55.646Z,15.40
2017-09-01T01:04:23.940Z,15.40
2017-09-01T01:06:52.297Z,15.30
2017-09-01T01:09:20.574Z,15.30
2017-09-01T01:11:48.867Z,15.40
2017-09-01T01:14:17.139Z,15.30
2017-09-01T01:16:45.422Z,15.30
2017-09-01T01:19:13.893Z,15.30
2017-09-01T01:21:42.273Z,15.20
2017-09-01T01:24:10.543Z,15.20
2017-09-01T01:26:38.826Z,15.30
2017-09-01T01:29:07.105Z,15.30
2017-09-01T01:31:35.374Z,15.30
2017-09-01T01:34:03.777Z,15.20
2017-09-01T01:36:32.092Z,15.20
2017-09-01T01:39:00.377Z,15.10
2017-09-01T01:41:28.698Z,15.10
2017-09-01T01:43:57.069Z,15.10
2017-09-01T01:46:25.465Z,15.10
2017-09-01T01:48:53.759Z,15.10
2017-09-01T01:51:22.209Z,15.10
2017-09-01T01:53:50.490Z,15.10
2017-09-01T01:56:18.790Z,15.00
2017-09-01T01:58:47.132Z,15.00
2017-09-01T02:01:15.421Z,15.10
2017-09-01T02:03:43.693Z,15.10
2017-09-01T02:06:12.017Z,15.10
2017-09-01T02:08:40.276Z,15.10
2017-09-01T02:11:08.633Z,15.10
2017-09-01T02:13:36.897Z,15.10
2017-09-01T02:16:05.171Z,15.00
2017-09-01T02:18:33.449Z,14.90
2017-09-01T02:21:01.716Z,14.90
2017-09-01T02:23:30.009Z,14.90
2017-09-01T02:25:58.277Z,14.80
2017-09-01T02:28:26.572Z,14.70
2017-09-01T02:30:54.869Z,14.80
2017-09-01T02:33:23.228Z,14.80
2017-09-01T02:35:51.519Z,14.70
2017-09-01T02:38:19.897Z,14.70
2017-09-01T02:40:48.189Z,14.70
2017-09-01T02:43:16.457Z,14.70
2017-09-01T02:45:44.833Z,14.70
2017-09-01T02:48:13.187Z,14.60
2017-09-01T02:50:41.478Z,14.50
2017-09-01T02:53:09.760Z,14.50
2017-09-01T02:55:38.080Z,14.50
2017-09-01T02:58:06.429Z,14.50
2017-09-01T03:00:34.729Z,14.50
2017-09-01T03:03:03.158Z,14.40
2017-09-01T03:05:31.443Z,14.30
2017-09-01T03:07:59.721Z,14.40
2017-09-01T03:10:28.023Z,14.30
2017-09-01T03:12:56.378Z,14.20
2017-09-01T03:15:24.645Z,14.20
2017-09-01T03:17:53.015Z,14.20
2017-09-01T03:20:21.331Z,14.10
2017-09-01T03:22:49.687Z,14.10
2017-09-01T03:25:17.966Z,14.10
2017-09-01T03:27:46.247Z,14.10
2017-09-01T03:30:14.625Z,14.00
2017-09-01T03:32:42.892Z,14.00
2017-09-01T03:35:11.160Z,14.00
2017-09-01T03:37:39.428Z,13.90
2017-09-01T03:40:07.724Z,13.90
2017-09-01T03:42:35.984Z,13.90
2017-09-01T03:45:04.295Z,14.00
2017-09-01T03:47:32.558Z,14.00
2017-09-01T03:50:01.041Z,14.00
2017-09-01T03:52:29.299Z,14.00
2017-09-01T03:54:58.312Z,14.00
2017-09-01T03:57:26.666Z,14.00
2017-09-01T03:59:54.941Z,14.00
2017-09-01T04:02:23.253Z,14.10
2017-09-01T04:04:51.529Z,14.00
2017-09-01T04:07:19.901Z,14.10
2017-09-01T04:09:48.199Z,14.10
2017-09-01T04:12:16.479Z,14.10
2017-09-01T04:14:44.733Z,14.20
2017-09-01T04:17:13.051Z,14.20
2017-09-01T04:19:41.408Z,14.10
2017-09-01T04:22:09.679Z,14.00
2017-09-01T04:24:37.969Z,14.00
2017-09-01T04:27:06.405Z,14.00
2017-09-01T04:29:34.701Z,14.20
2017-09-01T04:32:03.810Z,14.20
2017-09-01T04:34:33.746Z,14.10
2017-09-01T04:37:03.407Z,14.00
2017-09-01T04:39:31.813Z,13.90
2017-09-01T04:42:00.180Z,13.90
2017-09-01T04:44:28.437Z,14.00
2017-09-01T04:46:56.757Z,13.90
2017-09-01T04:49:25.055Z,13.80
2017-09-01T04:51:53.344Z,13.90
2017-09-01T04:54:21.667Z,13.80
2017-09-01T04:56:49.945Z,13.80
2017-09-01T04:59:18.220Z,13.90
2017-09-01T05:01:46.595Z,13.80
2017-09-01T05:04:14.863Z,13.80
2017-09-01T05:06:43.134Z,13.80
2017-09-01T05:09:11.499Z,13.80
2017-09-01T05:11:39.807Z,13.80
2017-09-01T05:14:08.078Z,13.80
2017-09-01T05:16:36.359Z,13.90
2017-09-01T05:19:04.751Z,13.90
2017-09-01T05:21:33.023Z,13.80
2017-09-01T05:24:01.411Z,13.90
2017-09-01T05:26:29.794Z,13.80
2017-09-01T05:28:58.105Z,13.90
2017-09-01T05:31:26.380Z,13.90
2017-09-01T05:33:54.719Z,13.90
2017-09-01T05:36:23.010Z,14.00
2017-09-01T05:38:52.003Z,14.00
2017-09-01T05:41:20.405Z,14.20
2017-09-01T05:43:48.736Z,14.20
2017-09-01T05:46:17.279Z,14.30
2017-09-01T05:48:45.542Z,14.40
2017-09-01T05:51:13.891Z,14.30
2017-09-01T05:53:43.256Z,14.40
2017-09-01T05:56:12.048Z,14.30
2017-09-01T05:58:40.314Z,14.40
2017-09-01T06:01:09.420Z,14.50
2017-09-01T06:03:38.076Z,14.50
2017-09-01T06:06:07.118Z,14.40
2017-09-01T06:08:35.409Z,14.40
2017-09-01T06:11:03.748Z,14.50
2017-09-01T06:13:32.117Z,14.50
2017-09-01T06:16:00.381Z,14.50
2017-09-01T06:18:28.646Z,14.50
2017-09-01T06:20:56.989Z,14.50
2017-09-01T06:23:25.330Z,14.50
2017-09-01T06:25:53.713Z,14.60
2017-09-01T06:28:21.989Z,14.70
2017-09-01T06:30:50.270Z,14.80
2017-09-01T06:33:18.675Z,14.90
2017-09-01T06:35:47.677Z,15.00
2017-09-01T06:38:15.959Z,15.10
2017-09-01T06:40:44.293Z,15.20
2017-09-01T06:43:12.589Z,15.30
2017-09-01T06:45:40.852Z,15.30
2017-09-01T06:48:09.245Z,15.30
2017-09-01T06:50:37.519Z,15.20
2017-09-01T06:53:05.799Z,15.20
2017-09-01T06:55:34.062Z,15.10
2017-09-01T06:58:02.371Z,15.10
2017-09-01T07:00:30.743Z,15.30
2017-09-01T07:02:59.071Z,15.30
2017-09-01T07:05:27.330Z,15.50
2017-09-01T07:07:55.586Z,15.40
2017-09-01T07:10:23.875Z,15.40
2017-09-01T07:12:52.130Z,15.40
2017-09-01T07:15:20.462Z,15.50
2017-09-01T07:17:48.726Z,15.60
2017-09-01T07:20:17.097Z,15.60
2017-09-01T07:22:45.390Z,15.80
2017-09-01T07:25:13.687Z,15.90
2017-09-01T07:27:42.045Z,16.10
2017-09-01T07:30:10.336Z,16.40
2017-09-01T07:32:38.597Z,16.50
2017-09-01T07:35:06.905Z,16.40
2017-09-01T07:37:35.262Z,16.80
2017-09-01T07:40:03.529Z,16.70
2017-09-01T07:42:31.809Z,16.80
2017-09-01T07:45:00.081Z,17.20
2017-09-01T07:47:28.374Z,17.30
2017-09-01T07:49:56.628Z,17.30
2017-09-01T07:52:24.947Z,17.20
2017-09-01T07:54:53.308Z,17.30
2017-09-01T07:57:21.604Z,17.30
2017-09-01T07:59:49.960Z,17.40
2017-09-01T08:02:18.238Z,17.60
2017-09-01T08:04:46.513Z,17.80
2017-09-01T08:07:14.826Z,18.00
2017-09-01T08:09:43.180Z,17.90
2017-09-01T08:12:11.446Z,18.00
2017-09-01T08:14:39.735Z,18.00
2017-09-01T08:17:08.014Z,17.90
2017-09-01T08:19:36.313Z,17.60
2017-09-01T08:22:04.579Z,17.60
2017-09-01T08:24:32.870Z,18.00
2017-09-01T08:27:01.211Z,18.20
2017-09-01T08:29:29.602Z,18.10
2017-09-01T08:31:57.906Z,18.20
2017-09-01T08:34:26.207Z,18.40
2017-09-01T08:36:54.489Z,18.70
2017-09-01T08:39:22.781Z,18.80
2017-09-01T08:41:51.099Z,19.00
2017-09-01T08:44:19.455Z,19.20
2017-09-01T08:46:47.745Z,19.10
2017-09-01T08:49:15.996Z,19.10
2017-09-01T08:51:44.383Z,19.30
2017-09-01T08:54:12.649Z,19.20
2017-09-01T08:56:40.935Z,19.20
2017-09-01T08:59:09.205Z,19.20
2017-09-01T09:01:37.563Z,19.60
2017-09-01T09:04:05.833Z,19.90
2017-09-01T09:06:34.211Z,20.00
2017-09-01T09:09:02.488Z,20.10
2017-09-01T09:11:30.770Z,20.50
2017-09-01T09:13:59.063Z,20.70
2017-09-01T09:16:27.413Z,20.60
2017-09-01T09:18:55.790Z,20.30
2017-09-01T09:21:24.025Z,20.10
2017-09-01T09:23:52.366Z,20.10
2017-09-01T09:26:20.621Z,20.30
2017-09-01T09:28:48.991Z,20.30
2017-09-01T09:31:17.277Z,20.30
2017-09-01T09:33:45.576Z,20.40
2017-09-01T09:36:13.932Z,20.10
2017-09-01T09:38:42.211Z,20.10
2017-09-01T09:41:10.511Z,20.40
2017-09-01T09:43:38.767Z,20.50
2017-09-01T09:46:07.060Z,20.50
2017-09-01T09:48:35.432Z,20.20
2017-09-01T09:51:03.718Z,20.10
2017-09-01T09:53:32.077Z,20.10
2017-09-01T09:56:00.375Z,20.20
2017-09-01T09:58:28.726Z,20.30
2017-09-01T10:00:57.123Z,19.90
2017-09-01T10:03:25.389Z,20.00
2017-09-01T10:05:53.659Z,20.40
2017-09-01T10:08:22.048Z,20.30
2017-09-01T10:10:50.328Z,20.30
2017-09-01T10:13:18.701Z,20.70
2017-09-01T10:15:46.970Z,20.60
2017-09-01T10:18:15.358Z,20.70
2017-09-01T10:20:43.661Z,21.00
2017-09-01T10:23:12.026Z,20.80
2017-09-01T10:25:40.293Z,20.80
2017-09-01T10:28:08.588Z,20.70
2017-09-01T10:30:36.853Z,20.70
2017-09-01T10:33:05.234Z,20.60
2017-09-01T10:35:33.533Z,20.70
2017-09-01T10:38:02.570Z,20.40
2017-09-01T10:40:30.840Z,20.40
2017-09-01T10:42:59.151Z,20.40
2017-09-01T10:45:27.547Z,20.20
2017-09-01T10:48:07.809Z,19.90
2017-09-01T10:50:47.950Z,19.90
2017-09-01T10:53:28.204Z,19.80
2017-09-01T10:56:08.480Z,19.90
2017-09-01T10:58:36.744Z,20.10
2017-09-01T11:01:05.020Z,20.10
2017-09-01T11:03:33.499Z,20.20
2017-09-01T11:06:01.795Z,20.20
2017-09-01T11:08:30.072Z,20.20
2017-09-01T11:10:58.339Z,20.20
2017-09-01T11:13:26.597Z,20.30
2017-09-01T11:15:54.882Z,19.90
2017-09-01T11:18:23.171Z,19.80
2017-09-01T11:20:57.117Z,19.80
2017-09-01T11:23:31.025Z,19.70
2017-09-01T11:25:59.289Z,19.60
2017-09-01T11:28:27.636Z,19.50
2017-09-01T11:30:55.907Z,19.70
2017-09-01T11:33:24.375Z,19.50
2017-09-01T11:35:52.640Z,19.60
2017-09-01T11:38:20.950Z,19.50
2017-09-01T11:40:49.218Z,19.40
2017-09-01T11:43:17.637Z,19.20
2017-09-01T11:45:45.967Z,19.20
2017-09-01T11:48:14.245Z,19.20
2017-09-01T11:50:42.524Z,19.30
2017-09-01T11:53:10.809Z,19.50
2017-09-01T11:55:39.193Z,19.40
2017-09-01T11:58:07.474Z,19.10
2017-09-01T12:00:35.751Z,19.00
2017-09-01T12:03:04.213Z,19.20
2017-09-01T12:05:32.597Z,19.10
2017-09-01T12:08:00.887Z,19.20
2017-09-01T12:10:29.249Z,18.90
2017-09-01T12:12:57.537Z,18.90
2017-09-01T12:15:25.815Z,18.70
2017-09-01T12:17:54.127Z,18.80
2017-09-01T12:20:22.381Z,18.50
2017-09-01T12:22:50.661Z,18.30
2017-09-01T12:25:19.036Z,18.40
2017-09-01T12:27:47.403Z,18.30
2017-09-01T12:30:15.772Z,18.40
2017-09-01T12:32:44.059Z,18.40
2017-09-01T12:35:12.370Z,18.10
2017-09-01T12:37:40.641Z,18.20
2017-09-01T12:40:09.683Z,18.30
2017-09-01T12:42:37.944Z,18.30
2017-09-01T12:45:06.267Z,18.30
2017-09-01T12:47:34.629Z,18.30
2017-09-01T12:50:02.931Z,18.30
2017-09-01T12:52:31.217Z,18.40
2017-09-01T12:54:59.564Z,18.50
2017-09-01T12:57:27.821Z,18.60
2017-09-01T12:59:56.111Z,18.70
2017-09-01T13:02:24.400Z,18.70
2017-09-01T13:04:52.679Z,18.60
2017-09-01T13:07:21.054Z,18.60
2017-09-01T13:09:49.352Z,18.60
2017-09-01T13:12:17.612Z,18.50
2017-09-01T13:14:45.895Z,18.40
2017-09-01T13:17:14.218Z,18.40
2017-09-01T13:19:42.543Z,18.60
2017-09-01T13:22:10.918Z,18.80
2017-09-01T13:24:39.321Z,18.60
2017-09-01T13:27:07.592Z,18.50
2017-09-01T13:29:35.882Z,18.50
2017-09-01T13:32:04.935Z,18.60
2017-09-01T13:34:33.331Z,18.60
2017-09-01T13:37:01.590Z,18.60
2017-09-01T13:39:29.970Z,18.70
2017-09-01T13:41:58.373Z,18.80
2017-09-01T13:44:26.841Z,18.70
2017-09-01T13:46:55.114Z,18.60
2017-09-01T13:49:23.391Z,18.50
2017-09-01T13:51:51.777Z,18.50
2017-09-01T13:54:20.042Z,18.60
2017-09-01T13:56:48.332Z,18.60
2017-09-01T13:59:16.623Z,18.60
2017-09-01T14:01:44.907Z,18.70
2017-09-01T14:04:13.216Z,18.50
2017-09-01T14:06:41.479Z,18.60
2017-09-01T14:09:10.638Z,18.60
2017-09-01T14:11:38.939Z,18.60
2017-09-01T14:14:07.309Z,18.50
2017-09-01T14:16:35.666Z,18.30
2017-09-01T14:19:03.977Z,18.30
2017-09-01T14:21:32.359Z,18.20
2017-09-01T14:24:00.723Z,18.30
2017-09-01T14:26:28.997Z,18.20
2017-09-01T14:28:57.287Z,18.20
2017-09-01T14:31:25.646Z,18.30
2017-09-01T14:33:53.935Z,18.40
2017-09-01T14:36:22.288Z,18.10
2017-09-01T14:38:50.558Z,18.10
2017-09-01T14:41:18.858Z,18.00
2017-09-01T14:43:47.139Z,18.10
2017-09-01T14:46:16.324Z,18.10
2017-09-01T14:48:44.602Z,18.10
2017-09-01T14:51:12.876Z,18.10
2017-09-01T14:53:41.155Z,18.00
2017-09-01T14:56:09.431Z,18.00
2017-09-01T14:58:37.711Z,18.10
2017-09-01T15:01:05.992Z,18.10
2017-09-01T15:03:34.355Z,18.10
2017-09-01T15:06:02.653Z,18.00
2017-09-01T15:08:30.979Z,18.00
2017-09-01T15:10:59.338Z,18.10
2017-09-01T15:13:27.679Z,18.20
2017-09-01T15:15:56.075Z,18.20
2017-09-01T15:18:24.439Z,18.30
2017-09-01T15:20:52.836Z,18.20
2017-09-01T15:23:21.216Z,18.10
2017-09-01T15:25:49.586Z,17.90
2017-09-01T15:28:17.939Z,17.90
2017-09-01T15:30:46.235Z,17.90
2017-09-01T15:33:14.499Z,17.80
2017-09-01T15:35:42.824Z,17.60
2017-09-01T15:38:11.085Z,17.70
2017-09-01T15:40:39.373Z,17.70
2017-09-01T15:43:07.653Z,17.60
2017-09-01T15:45:35.961Z,17.70
2017-09-01T15:48:04.310Z,17.60
2017-09-01T15:50:32.589Z,17.50
2017-09-01T15:53:00.974Z,17.60
2017-09-01T15:55:29.347Z,17.80
2017-09-01T15:57:57.674Z,17.80
2017-09-01T16:00:27.159Z,17.90
2017-09-01T16:02:55.434Z,17.90
2017-09-01T16:05:23.715Z,17.90
2017-09-01T16:07:51.994Z,17.90
2017-09-01T16:10:20.390Z,17.70
2017-09-01T16:12:48.675Z,17.80
2017-09-01T16:15:16.969Z,17.70
2017-09-01T16:17:45.281Z,17.70
2017-09-01T16:20:13.644Z,17.50
2017-09-01T16:22:41.991Z,17.60
2017-09-01T16:25:10.327Z,17.70
2017-09-01T16:27:38.604Z,17.60
2017-09-01T16:30:06.866Z,17.60
2017-09-01T16:32:35.245Z,17.60
2017-09-01T16:35:04.216Z,17.50
2017-09-01T16:37:33.177Z,17.60
2017-09-01T16:40:01.895Z,17.70
2017-09-01T16:42:30.210Z,17.70
2017-09-01T16:44:58.572Z,17.70
2017-09-01T16:47:26.879Z,17.60
2017-09-01T16:49:55.186Z,17.70
2017-09-01T16:52:23.457Z,17.60
2017-09-01T16:54:51.782Z,17.50
2017-09-01T16:57:20.058Z,17.30
2017-09-01T16:59:48.450Z,17.40
2017-09-01T17:02:16.817Z,17.30
2017-09-01T17:04:45.185Z,17.30
2017-09-01T17:07:13.470Z,17.30
2017-09-01T17:09:41.767Z,17.30
2017-09-01T17:12:10.039Z,17.30
2017-09-01T17:14:38.385Z,17.40
2017-09-01T17:17:06.663Z,17.30
2017-09-01T17:19:34.938Z,17.30
2017-09-01T17:22:03.333Z,17.40
2017-09-01T17:24:31.714Z,17.40
2017-09-01T17:27:00.909Z,17.50
2017-09-01T17:29:29.194Z,17.50
2017-09-01T17:31:57.463Z,17.50
2017-09-01T17:34:26.559Z,17.50
2017-09-01T17:36:54.836Z,17.50
2017-09-01T17:39:23.103Z,17.50
2017-09-01T17:41:51.400Z,17.60
2017-09-01T17:44:19.679Z,17.50
2017-09-01T17:46:47.929Z,17.30
2017-09-01T17:49:16.257Z,17.20
2017-09-01T17:51:45.282Z,17.00
2017-09-01T17:54:13.611Z,17.00
2017-09-01T17:56:41.866Z,17.00
2017-09-01T17:59:10.349Z,17.00
2017-09-01T18:01:38.618Z,17.00
2017-09-01T18:04:06.912Z,17.00
2017-09-01T18:06:35.294Z,17.10
2017-09-01T18:09:03.655Z,17.10
2017-09-01T18:11:31.962Z,17.10
2017-09-01T18:14:00.228Z,17.10
2017-09-01T18:16:28.584Z,17.00
2017-09-01T18:18:56.833Z,17.00
2017-09-01T18:21:25.152Z,16.90
2017-09-01T18:23:53.411Z,16.90
2017-09-01T18:26:21.819Z,16.90
2017-09-01T18:28:50.091Z,16.90
2017-09-01T18:31:18.344Z,16.90
2017-09-01T18:33:46.719Z,17.00
2017-09-01T18:36:14.989Z,17.00
2017-09-01T18:38:43.260Z,17.00
2017-09-01T18:41:11.542Z,17.10
2017-09-01T18:43:39.858Z,17.10
2017-09-01T18:46:08.106Z,17.00
2017-09-01T18:48:36.381Z,16.90
2017-09-01T18:51:04.877Z,16.80
2017-09-01T18:53:33.241Z,16.80
2017-09-01T18:56:01.544Z,16.80
2017-09-01T18:58:29.817Z,16.80
2017-09-01T19:00:58.134Z,16.90
2017-09-01T19:03:26.412Z,16.80
2017-09-01T19:05:54.759Z,16.80
2017-09-01T19:08:22.999Z,16.90
2017-09-01T19:10:51.280Z,16.80
2017-09-01T19:13:19.537Z,16.80
2017-09-01T19:15:47.959Z,16.70
2017-09-01T19:18:16.220Z,16.70
2017-09-01T19:20:44.499Z,16.80
2017-09-01T19:23:12.890Z,16.80
2017-09-01T19:25:41.172Z,16.80
2017-09-01T19:28:09.455Z,16.80
2017-09-01T19:30:37.805Z,16.80
2017-09-01T19:33:06.202Z,16.80
2017-09-01T19:35:34.489Z,16.90
2017-09-01T19:38:02.857Z,16.90
2017-09-01T19:40:31.126Z,16.90
2017-09-01T19:42:59.504Z,16.90
2017-09-01T19:45:27.756Z,16.90
2017-09-01T19:47:56.019Z,16.80
2017-09-01T19:50:24.396Z,16.80
2017-09-01T19:52:52.816Z,16.80
2017-09-01T19:55:21.084Z,16.80
2017-09-01T19:57:49.352Z,16.80
2017-09-01T20:00:17.751Z,16.80
2017-09-01T20:02:46.005Z,16.80
2017-09-01T20:05:14.409Z,16.80
2017-09-01T20:07:42.682Z,16.90
2017-09-01T20:10:11.079Z,16.90
2017-09-01T20:12:39.548Z,16.90
2017-09-01T20:15:07.836Z,16.90
2017-09-01T20:17:36.305Z,17.00
2017-09-01T20:20:04.633Z,17.00
2017-09-01T20:22:32.897Z,17.00
2017-09-01T20:25:01.924Z,17.00
2017-09-01T20:27:30.256Z,16.90
2017-09-01T20:29:58.520Z,17.00
2017-09-01T20:32:26.810Z,16.90
2017-09-01T20:34:55.180Z,16.90
2017-09-01T20:37:23.461Z,16.80
2017-09-01T20:39:51.839Z,16.80
2017-09-01T20:42:20.121Z,16.70
2017-09-01T20:44:48.402Z,16.60
2017-09-01T20:47:16.699Z,16.60
2017-09-01T20:49:45.029Z,16.60
2017-09-01T20:52:13.305Z,16.60
2017-09-01T20:54:41.702Z,16.50
2017-09-01T20:57:10.059Z,16.50
2017-09-01T20:59:38.464Z,16.40
2017-09-01T21:02:06.740Z,16.50
2017-09-01T21:04:35.100Z,16.40
2017-09-01T21:07:03.351Z,16.30
2017-09-01T21:09:31.651Z,16.20
2017-09-01T21:11:59.909Z,16.30
2017-09-01T21:14:28.187Z,16.30
2017-09-01T21:16:56.450Z,16.20
2017-09-01T21:19:24.770Z,16.20
2017-09-01T21:21:53.040Z,16.10
2017-09-01T21:24:21.299Z,16.10
2017-09-01T21:26:49.649Z,16.10
2017-09-01T21:29:17.995Z,16.00
2017-09-01T21:31:47.073Z,16.10
2017-09-01T21:34:15.341Z,16.10
2017-09-01T21:36:43.631Z,16.10
2017-09-01T21:39:12.653Z,16.00
2017-09-01T21:41:40.930Z,16.00
2017-09-01T21:44:09.275Z,16.00
2017-09-01T21:46:37.548Z,16.00
2017-09-01T21:49:05.822Z,16.00
2017-09-01T21:51:34.153Z,16.00
2017-09-01T21:54:02.470Z,15.90
2017-09-01T21:56:30.737Z,15.90
2017-09-01T21:58:59.074Z,16.00
2017-09-01T22:01:33.134Z,16.10
2017-09-01T22:04:01.493Z,16.20
2017-09-01T22:06:29.767Z,16.20
2017-09-01T22:08:58.120Z,16.20
2017-09-01T22:11:26.392Z,16.20
2017-09-01T22:13:54.791Z,16.30
2017-09-01T22:16:23.059Z,16.20
2017-09-01T22:18:51.326Z,16.30
2017-09-01T22:21:19.623Z,16.20
2017-09-01T22:23:47.987Z,16.20
2017-09-01T22:26:16.279Z,16.20
2017-09-01T22:28:44.551Z,16.20
2017-09-01T22:31:12.921Z,16.10
2017-09-01T22:33:41.194Z,16.10
2017-09-01T22:36:09.501Z,16.10
2017-09-01T22:38:38.417Z,16.00
2017-09-01T22:41:06.674Z,16.00
2017-09-01T22:43:35.023Z,16.00
2017-09-01T22:46:03.327Z,15.90
2017-09-01T22:48:31.606Z,15.90
2017-09-01T22:50:59.967Z,16.00
2017-09-01T22:53:28.347Z,16.00
2017-09-01T22:55:56.634Z,16.00
2017-09-01T22:58:24.928Z,16.00
2017-09-01T23:00:54.015Z,16.00
2017-09-01T23:03:22.360Z,16.10
2017-09-01T23:05:50.649Z,16.10
2017-09-01T23:08:18.908Z,16.00
2017-09-01T23:10:47.179Z,16.00
2017-09-01T23:13:15.471Z,15.90
2017-09-01T23:15:43.786Z,15.80
2017-09-01T23:18:12.055Z,15.70
2017-09-01T23:20:40.405Z,15.70
2017-09-01T23:23:08.787Z,15.80
2017-09-01T23:25:37.040Z,15.70
2017-09-01T23:28:05.334Z,15.70
2017-09-01T23:30:33.619Z,15.70
2017-09-01T23:33:02.018Z,15.70
2017-09-01T23:35:30.396Z,15.70
2017-09-01T23:37:58.686Z,15.70
2017-09-01T23:40:26.943Z,15.60
2017-09-01T23:42:55.220Z,15.60
2017-09-01T23:45:23.481Z,15.60
2017-09-01T23:47:51.862Z,15.60
2017-09-01T23:50:20.132Z,15.50
2017-09-01T23:52:48.409Z,15.50
2017-09-01T23:55:16.772Z,15.40
2017-09-01T23:57:45.040Z,15.40
